Time;durP1;ratioP1;P1;durP2;ratioP2;P2;SDS_P1;SDS_P2;PMS_P1;PMS_P2;Temp;Humidity;BMP_temperature;BMP_pressure;BME280_temperature;BME280_humidity;BME280_pressure;Samples;Min_cycle;Max_cycle;Signal;HPM_P1;HPM_P2
2022/09/23 00:00:39;;;;;;;1.33;1.10;;;;;;;12.04;100.00;101684.28;2097782;28;20241;-57
2022/09/23 00:01:40;;;;;;;1.90;1.50;;;;;;;11.64;100.00;101624.84;2105910;28;20186;-57
2022/09/23 00:02:41;;;;;;;2.33;1.70;;;;;;;12.04;100.00;101678.72;2098436;28;20425;-57
2022/09/23 00:03:44;;;;;;;1.80;1.47;;;;;;;12.01;100.00;101683.13;2097268;28;20645;-57
2022/09/23 00:04:45;;;;;;;2.33;1.30;;;;;;;12.01;100.00;101687.88;2097148;28;20460;-57
2022/09/23 00:06:06;;;;;;;3.13;1.43;;;;;;;11.50;100.00;101610.31;2097553;28;20432;-57
2022/09/23 00:07:07;;;;;;;3.27;1.50;;;;;;;11.95;100.00;101686.75;2096777;28;20452;-57
2022/09/23 00:08:10;;;;;;;2.70;1.60;;;;;;;11.92;100.00;101680.03;2097537;28;20425;-58
2022/09/23 00:09:11;;;;;;;2.50;1.77;;;;;;;11.92;100.00;101687.56;2097195;28;20209;-57
2022/09/23 00:10:11;;;;;;;3.10;1.47;;;;;;;11.94;100.00;101677.63;2097349;28;20428;-57
2022/09/23 00:11:18;;;;;;;1.80;1.50;;;;;;;11.66;100.00;101635.53;2096685;28;20175;-58
2022/09/23 00:12:18;;;;;;;2.27;1.57;;;;;;;11.97;100.00;101684.34;2093372;28;20174;-57
2022/09/23 00:13:19;;;;;;;3.30;1.60;;;;;;;11.78;100.00;101651.66;2097600;28;20703;-58
2022/09/23 00:14:20;;;;;;;1.90;1.40;;;;;;;11.97;100.00;101679.59;2089783;28;20191;-57
2022/09/23 00:15:21;;;;;;;3.20;1.60;;;;;;;11.99;100.00;101676.41;2095540;28;20214;-57
2022/09/23 00:16:32;;;;;;;2.40;1.60;;;;;;;11.87;100.00;101685.25;2097185;28;20445;-57
2022/09/23 00:17:33;;;;;;;2.20;1.50;;;;;;;11.86;100.00;101678.13;2097105;28;20184;-57
2022/09/23 00:18:34;;;;;;;5.67;1.70;;;;;;;11.87;100.00;101682.47;2096605;28;20421;-57
2022/09/23 00:19:37;;;;;;;2.00;1.47;;;;;;;11.81;100.00;101675.81;2097097;28;20227;-57
2022/09/23 00:20:39;;;;;;;3.33;1.67;;;;;;;11.84;100.00;101672.22;2095449;28;20422;-58
2022/09/23 00:21:39;;;;;;;4.83;1.73;;;;;;;11.90;100.00;101676.09;2095647;28;20425;-57
2022/09/23 00:22:40;;;;;;;3.47;1.80;;;;;;;11.74;100.00;101648.91;2097699;28;20504;-57
2022/09/23 00:23:42;;;;;;;2.50;1.60;;;;;;;11.50;100.00;101616.66;2097531;28;20236;-58
2022/09/23 00:24:42;;;;;;;4.10;1.70;;;;;;;11.87;100.00;101680.50;2097394;28;20188;-57
2022/09/23 00:25:42;;;;;;;6.03;2.10;;;;;;;11.86;100.00;101667.03;2091606;28;20517;-58
2022/09/23 00:26:43;;;;;;;2.17;1.73;;;;;;;11.88;100.00;101673.75;2093290;28;20563;-57
2022/09/23 00:27:43;;;;;;;3.37;1.60;;;;;;;11.88;100.00;101670.19;2094032;28;20240;-58
2022/09/23 00:28:44;;;;;;;2.97;1.60;;;;;;;11.60;100.00;101626.91;2095806;28;20180;-58
2022/09/23 00:29:45;;;;;;;1.83;1.47;;;;;;;11.93;100.00;101675.28;2097010;28;20196;-58
2022/09/23 00:30:45;;;;;;;3.47;1.57;;;;;;;11.96;100.00;101677.22;2097545;28;20488;-58
2022/09/23 00:31:46;;;;;;;2.70;1.80;;;;;;;11.96;100.00;101680.00;2089669;28;20574;-57
2022/09/23 00:32:47;;;;;;;2.17;1.53;;;;;;;11.57;100.00;101608.25;2094741;28;20191;-57
2022/09/23 00:33:55;;;;;;;4.63;1.70;;;;;;;11.88;100.00;101664.63;2091751;28;20185;-57
2022/09/23 00:34:55;;;;;;;1.93;1.73;;;;;;;12.04;100.00;101681.50;2091461;28;20172;-58
2022/09/23 00:36:05;;;;;;;2.63;1.40;;;;;;;12.06;100.00;101674.31;2097096;28;20437;-57
2022/09/23 00:37:05;;;;;;;3.00;1.60;;;;;;;12.08;100.00;101673.88;2093485;28;20222;-57
2022/09/23 00:38:06;;;;;;;2.13;1.63;;;;;;;11.79;100.00;101642.91;2088453;28;20925;-58
2022/09/23 00:39:06;;;;;;;1.87;1.57;;;;;;;12.11;100.00;101679.41;2094098;28;20225;-58
2022/09/23 00:40:07;;;;;;;1.93;1.40;;;;;;;12.10;100.00;101675.03;2097577;28;20168;-57
2022/09/23 00:41:08;;;;;;;1.70;1.40;;;;;;;12.12;100.00;101677.41;2097307;28;20567;-58
2022/09/23 00:42:15;;;;;;;2.70;1.20;;;;;;;12.13;100.00;101671.44;2091238;28;20654;-58
2022/09/23 00:43:16;;;;;;;2.20;1.80;;;;;;;11.90;100.00;101651.91;2090610;28;20187;-58
2022/09/23 00:44:49;;;;;;;2.50;1.50;;;;;;;12.05;100.00;101675.50;2090431;28;20452;-57
2022/09/23 00:45:50;;;;;;;2.07;1.40;;;;;;;11.43;100.00;101580.66;2098161;28;20557;-57
2022/09/23 00:46:51;;;;;;;2.30;1.70;;;;;;;12.06;100.00;101681.84;2098291;28;20577;-59
2022/09/23 00:48:02;;;;;;;2.47;1.50;;;;;;;11.91;100.00;101655.44;2095384;28;20183;-57
2022/09/23 00:49:10;;;;;;;2.23;1.60;;;;;;;11.98;100.00;101672.81;2090560;28;20433;-58
2022/09/23 00:50:30;;;;;;;2.20;1.60;;;;;;;11.92;100.00;101673.69;2095481;28;21023;-57
2022/09/23 00:51:35;;;;;;;3.97;1.70;;;;;;;11.90;100.00;101670.56;2098561;28;20938;-57
2022/09/23 00:52:36;;;;;;;3.43;1.63;;;;;;;11.85;100.00;101671.00;2098878;28;20422;-57
2022/09/23 00:53:37;;;;;;;2.93;1.57;;;;;;;11.79;100.00;101662.34;2098601;28;20472;-57
2022/09/23 00:54:38;;;;;;;2.30;1.70;;;;;;;11.38;100.00;101614.41;2099005;28;20193;-58
2022/09/23 00:55:53;;;;;;;4.00;1.80;;;;;;;11.78;100.00;101680.22;2096609;28;20496;-57
2022/09/23 00:56:55;;;;;;;3.23;1.60;;;;;;;11.78;100.00;101677.44;2100329;28;20954;-58
2022/09/23 00:57:58;;;;;;;2.03;1.70;;;;;;;11.79;100.00;101675.47;2106479;28;20464;-57
2022/09/23 00:59:00;;;;;;;2.40;1.93;;;;;;;11.82;100.00;101675.41;2098507;28;20767;-57
2022/09/23 01:00:00;;;;;;;1.93;1.50;;;;;;;11.28;100.00;101597.91;2100977;28;20429;-57
2022/09/23 01:01:02;;;;;;;1.63;1.43;;;;;;;11.71;100.00;101673.94;2098188;28;20526;-57
2022/09/23 01:02:04;;;;;;;3.20;1.83;;;;;;;11.74;100.00;101673.13;2098534;28;20232;-59
2022/09/23 01:03:05;;;;;;;3.10;1.67;;;;;;;11.71;100.00;101674.75;2098262;28;20499;-57
2022/09/23 01:04:07;;;;;;;4.63;1.63;;;;;;;11.61;100.00;101659.00;2094550;28;20943;-57
2022/09/23 01:05:08;;;;;;;2.50;1.60;;;;;;;11.77;100.00;101672.28;2098620;28;20538;-58
2022/09/23 01:06:09;;;;;;;5.13;2.10;;;;;;;11.77;100.00;101678.63;2098658;28;20434;-57
2022/09/23 01:07:10;;;;;;;3.33;1.70;;;;;;;11.66;100.00;101646.63;2098194;28;20422;-57
2022/09/23 01:08:13;;;;;;;3.10;1.60;;;;;;;11.74;100.00;101662.78;2098842;28;20441;-57
2022/09/23 01:09:14;;;;;;;2.03;1.60;;;;;;;11.73;100.00;101664.00;2098761;28;20838;-57
2022/09/23 01:10:17;;;;;;;3.97;1.70;;;;;;;11.39;100.00;101621.56;2098503;28;20452;-57
2022/09/23 01:11:23;;;;;;;3.47;1.80;;;;;;;11.74;100.00;101673.13;2097838;28;20430;-58
2022/09/23 01:12:42;;;;;;;4.63;1.60;;;;;;;11.74;100.00;101676.69;2097742;28;20441;-58
2022/09/23 01:14:06;;;;;;;6.93;2.20;;;;;;;11.41;100.00;101635.00;2094467;28;20433;-58
2022/09/23 01:15:09;;;;;;;2.53;1.73;;;;;;;11.69;100.00;101670.81;2094176;28;20395;-57
2022/09/23 01:16:09;;;;;;;3.53;1.80;;;;;;;11.73;100.00;101671.56;2098521;28;20441;-58
2022/09/23 01:17:28;;;;;;;3.10;1.87;;;;;;;11.70;100.00;101670.41;2098735;28;20513;-58
2022/09/23 01:18:40;;;;;;;2.40;1.60;;;;;;;11.77;100.00;101686.16;2098192;28;20203;-57
2022/09/23 01:20:13;;;;;;;2.67;1.60;;;;;;;11.75;100.00;101666.38;2098201;28;20418;-57
2022/09/23 01:21:32;;;;;;;1.93;1.60;;;;;;;11.77;100.00;101677.84;2091958;28;20394;-57
2022/09/23 01:23:00;;;;;;;2.03;1.70;;;;;;;11.72;100.00;101668.00;2095805;28;20392;-58
2022/09/23 01:24:01;;;;;;;2.33;1.60;;;;;;;11.74;100.00;101668.34;2097706;28;20418;-57
2022/09/23 01:25:33;;;;;;;1.83;1.60;;;;;;;11.53;100.00;101634.50;2098287;28;20438;-57
2022/09/23 01:26:45;;;;;;;3.97;1.80;;;;;;;11.68;100.00;101672.78;2098535;28;20414;-57
2022/09/23 01:28:02;;;;;;;2.20;1.50;;;;;;;11.66;100.00;101668.84;2098072;28;20477;-57
2022/09/23 01:29:41;;;;;;;1.67;1.53;;;;;;;11.66;100.00;101669.66;2093754;28;20793;-57
2022/09/23 01:31:06;;;;;;;2.20;1.60;;;;;;;11.64;100.00;101671.28;2090537;28;20854;-57
2022/09/23 01:32:30;;;;;;;3.10;1.93;;;;;;;11.62;100.00;101676.44;2090093;28;20522;-57
2022/09/23 01:33:34;;;;;;;2.57;2.07;;;;;;;11.58;100.00;101675.69;2083976;28;20454;-57
2022/09/23 01:34:37;;;;;;;2.43;1.53;;;;;;;11.62;100.00;101673.66;2092050;28;20521;-57
2022/09/23 01:35:52;;;;;;;3.43;1.80;;;;;;;11.59;100.00;101680.06;2097723;28;20449;-57
2022/09/23 01:37:09;;;;;;;2.50;1.73;;;;;;;11.08;100.00;101602.47;2098234;28;20425;-58
2022/09/23 01:38:39;;;;;;;2.00;1.63;;;;;;;11.52;100.00;101678.09;2090255;28;20445;-57
2022/09/23 01:40:00;;;;;;;1.80;1.60;;;;;;;11.51;100.00;101676.53;2091499;28;20445;-57
2022/09/23 01:41:17;;;;;;;1.83;1.33;;;;;;;11.48;100.00;101676.59;2094879;28;20914;-57
2022/09/23 01:42:34;;;;;;;2.57;1.60;;;;;;;11.38;100.00;101669.16;2090000;28;20451;-57
2022/09/23 01:43:43;;;;;;;4.90;1.97;;;;;;;11.47;100.00;101681.34;2095813;28;20434;-58
2022/09/23 01:45:16;;;;;;;4.17;1.77;;;;;;;11.52;100.00;101677.34;2098203;28;20962;-57
2022/09/23 01:46:26;;;;;;;6.33;2.20;;;;;;;11.52;100.00;101674.56;2098357;28;20525;-57
2022/09/23 01:47:35;;;;;;;7.30;2.00;;;;;;;11.50;100.00;101674.16;2098183;28;20414;-57
2022/09/23 01:48:45;;;;;;;10.00;2.50;;;;;;;11.49;100.00;101673.41;2094055;28;20814;-58
2022/09/23 01:49:58;;;;;;;5.97;2.00;;;;;;;11.48;100.00;101676.59;2097019;28;20460;-58
2022/09/23 01:51:14;;;;;;;4.30;1.87;;;;;;;11.17;100.00;101630.53;2098350;28;20421;-57
2022/09/23 01:52:24;;;;;;;2.27;1.70;;;;;;;11.36;100.00;101668.75;2092299;28;20468;-57
2022/09/23 01:53:27;;;;;;;2.67;1.60;;;;;;;11.51;100.00;101682.09;2097949;28;20939;-57
2022/09/23 01:54:40;;;;;;;2.80;1.80;;;;;;;11.52;100.00;101677.34;2105388;28;20441;-57
2022/09/23 01:55:47;;;;;;;2.40;1.70;;;;;;;11.38;100.00;101671.94;2097030;28;20444;-58
2022/09/23 01:56:53;;;;;;;3.03;1.90;;;;;;;11.50;100.00;101686.06;2097342;28;21009;-58
2022/09/23 01:58:00;;;;;;;3.83;1.70;;;;;;;11.51;100.00;101682.09;2097158;28;20433;-58
2022/09/23 01:59:22;;;;;;;3.03;1.70;;;;;;;11.28;100.00;101648.63;2098088;28;20528;-58
2022/09/23 02:00:24;;;;;;;2.67;1.77;;;;;;;11.41;100.00;101658.00;2090112;28;20429;-58
2022/09/23 02:01:35;;;;;;;3.17;1.80;;;;;;;11.49;100.00;101676.19;2097455;28;20582;-57
2022/09/23 02:02:48;;;;;;;2.70;1.90;;;;;;;11.45;100.00;101675.41;2096717;28;20421;-58
2022/09/23 02:03:59;;;;;;;2.57;1.60;;;;;;;11.46;100.00;101676.97;2098202;28;20858;-58
2022/09/23 02:05:07;;;;;;;2.93;1.50;;;;;;;11.40;100.00;101675.88;2101682;28;20425;-58
2022/09/23 02:06:14;;;;;;;2.40;1.83;;;;;;;11.45;100.00;101677.38;2104820;28;20471;-58
2022/09/23 02:07:32;;;;;;;2.37;1.60;;;;;;;11.44;100.00;101673.84;2098193;28;20417;-58
2022/09/23 02:09:01;;;;;;;2.57;1.73;;;;;;;11.41;100.00;101688.53;2097757;28;20970;-58
2022/09/23 02:10:11;;;;;;;2.20;1.80;;;;;;;11.41;100.00;101680.22;2089066;28;20446;-58
2022/09/23 02:11:14;;;;;;;6.33;2.00;;;;;;;11.43;100.00;101691.69;2094543;28;20934;-57
2022/09/23 02:12:19;;;;;;;4.60;2.00;;;;;;;11.43;100.00;101688.13;2097945;28;20415;-58
2022/09/23 02:13:31;;;;;;;6.70;2.37;;;;;;;11.04;100.00;101619.16;2098215;28;20406;-58
2022/09/23 02:14:42;;;;;;;6.63;2.10;;;;;;;11.03;100.00;101620.38;2092246;28;20826;-58
2022/09/23 02:15:49;;;;;;;2.40;1.70;;;;;;;11.44;100.00;101681.38;2093596;28;20510;-58
2022/09/23 02:16:54;;;;;;;3.77;2.03;;;;;;;11.44;100.00;101679.41;2096172;28;20471;-58
2022/09/23 02:18:01;;;;;;;4.70;2.00;;;;;;;11.46;100.00;101685.31;2093047;28;20432;-58
2022/09/23 02:19:20;;;;;;;2.90;2.03;;;;;;;11.44;100.00;101682.16;2098072;28;20509;-58
2022/09/23 02:20:33;;;;;;;4.77;2.10;;;;;;;11.45;100.00;101685.72;2098356;28;20429;-58
2022/09/23 02:21:43;;;;;;;4.87;2.03;;;;;;;11.41;100.00;101673.84;2090364;28;20400;-58
2022/09/23 02:23:14;;;;;;;5.53;1.80;;;;;;;11.44;100.00;101693.28;2094387;28;20414;-58
2022/09/23 02:24:27;;;;;;;3.37;1.60;;;;;;;11.46;100.00;101681.75;2092784;28;20445;-58
2022/09/23 02:26:01;;;;;;;7.83;2.20;;;;;;;11.45;100.00;101694.03;2101608;28;20593;-58
2022/09/23 02:27:17;;;;;;;3.03;1.70;;;;;;;11.45;100.00;101683.75;2100252;28;20864;-58
2022/09/23 02:28:27;;;;;;;2.50;1.70;;;;;;;11.36;100.00;101688.97;2098147;28;20918;-58
2022/09/23 02:29:43;;;;;;;2.30;1.77;;;;;;;11.09;100.00;101643.69;2097935;28;20986;-57
2022/09/23 02:31:18;;;;;;;3.37;2.00;;;;;;;11.42;100.00;101692.13;2093369;28;20448;-58
2022/09/23 02:32:29;;;;;;;3.83;1.93;;;;;;;11.39;100.00;101692.94;2091829;28;20470;-58
2022/09/23 02:33:38;;;;;;;2.10;1.73;;;;;;;11.34;100.00;101691.41;2097427;28;20444;-58
2022/09/23 02:35:05;;;;;;;3.33;1.70;;;;;;;11.34;100.00;101696.94;2097689;28;20414;-57
2022/09/23 02:36:26;;;;;;;3.47;1.60;;;;;;;11.34;100.00;101690.59;2097688;28;20426;-57
2022/09/23 02:37:42;;;;;;;3.20;1.90;;;;;;;11.33;100.00;101689.78;2094898;28;20429;-57
2022/09/23 02:38:50;;;;;;;3.90;1.83;;;;;;;11.32;100.00;101691.00;2098546;28;20441;-58
2022/09/23 02:40:05;;;;;;;3.87;1.70;;;;;;;11.33;100.00;101694.56;2098088;28;20418;-58
2022/09/23 02:41:25;;;;;;;2.83;1.87;;;;;;;11.33;100.00;101691.81;2097149;28;20433;-58
2022/09/23 02:42:44;;;;;;;3.30;2.00;;;;;;;11.34;100.00;101685.03;2097657;28;20394;-57
2022/09/23 02:43:55;;;;;;;3.67;1.80;;;;;;;11.29;100.00;101700.16;2097402;28;20953;-58
2022/09/23 02:44:57;;;;;;;5.10;2.17;;;;;;;11.25;100.00;101699.41;2094110;28;20413;-58
2022/09/23 02:45:58;;;;;;;4.37;2.00;;;;;;;11.24;100.00;101700.63;2097566;28;21038;-58
2022/09/23 02:46:59;;;;;;;5.37;2.40;;;;;;;11.22;100.00;101703.00;2097660;28;20453;-57
2022/09/23 02:48:12;;;;;;;8.17;2.50;;;;;;;11.22;100.00;101693.91;2097988;28;20434;-58
2022/09/23 02:49:26;;;;;;;4.30;2.23;;;;;;;11.17;100.00;101697.88;2096113;28;20491;-58
2022/09/23 02:50:27;;;;;;;7.60;2.30;;;;;;;10.74;100.00;101634.88;2097309;28;20418;-57
2022/09/23 02:51:36;;;;;;;3.97;2.10;;;;;;;11.14;100.00;101695.94;2097627;28;20483;-58
2022/09/23 02:52:37;;;;;;;7.50;2.20;;;;;;;11.15;100.00;101705.03;2097961;28;20184;-58
2022/09/23 02:53:38;;;;;;;3.83;2.30;;;;;;;11.09;100.00;101698.38;2097756;28;20429;-57
2022/09/23 02:54:39;;;;;;;2.80;2.00;;;;;;;10.83;100.00;101660.16;2096664;28;20450;-57
2022/09/23 02:55:41;;;;;;;4.33;2.00;;;;;;;11.05;100.00;101697.59;2097891;28;20512;-57
2022/09/23 02:56:42;;;;;;;3.87;2.37;;;;;;;11.09;100.00;101701.13;2096581;28;20168;-57
2022/09/23 02:57:43;;;;;;;4.87;2.20;;;;;;;11.14;100.00;101706.25;2097802;28;20931;-57
2022/09/23 02:58:45;;;;;;;3.23;2.17;;;;;;;11.13;100.00;101711.00;2097791;28;20277;-58
2022/09/23 02:59:46;;;;;;;4.10;1.90;;;;;;;11.17;100.00;101708.22;2097600;28;21068;-58
2022/09/23 03:00:55;;;;;;;2.40;1.80;;;;;;;11.13;100.00;101708.22;2097730;28;20870;-57
2022/09/23 03:02:32;;;;;;;4.80;2.07;;;;;;;10.98;100.00;101689.34;2097638;28;20555;-58
2022/09/23 03:03:45;;;;;;;5.90;2.33;;;;;;;11.03;100.00;101700.81;2096500;28;20420;-58
2022/09/23 03:05:17;;;;;;;9.70;2.50;;;;;;;10.97;100.00;101712.75;2090130;28;20788;-58
2022/09/23 03:07:01;;;;;;;11.70;2.93;;;;;;;10.88;100.00;101707.66;2096675;28;20442;-57
2022/09/23 03:08:20;;;;;;;8.27;2.33;;;;;;;10.85;100.00;101704.91;2088862;28;20963;-58
2022/09/23 03:09:53;;;;;;;6.53;2.87;;;;;;;10.86;100.00;101710.03;2099236;28;20986;-58
2022/09/23 03:11:20;;;;;;;7.17;2.47;;;;;;;10.86;100.00;101710.03;2094384;28;21001;-57
2022/09/23 03:12:34;;;;;;;4.63;2.07;;;;;;;10.80;100.00;101706.13;2091321;28;20450;-58
2022/09/23 03:14:05;;;;;;;6.97;2.00;;;;;;;10.44;100.00;101659.66;2097275;28;21008;-58
2022/09/23 03:15:09;;;;;;;4.13;2.17;;;;;;;10.82;100.00;101703.72;2092743;28;20414;-57
2022/09/23 03:16:26;;;;;;;6.20;2.20;;;;;;;10.81;100.00;101704.94;2104994;28;20460;-58
2022/09/23 03:17:53;;;;;;;5.97;2.43;;;;;;;10.82;100.00;101700.94;2100501;28;20409;-58
2022/09/23 03:19:42;;;;;;;3.60;1.80;;;;;;;10.80;100.00;101713.66;2094036;28;20815;-58
2022/09/23 03:20:57;;;;;;;6.93;2.20;;;;;;;10.76;100.00;101701.81;2084169;28;20463;-58
2022/09/23 03:22:19;;;;;;;8.40;2.50;;;;;;;10.74;100.00;101707.78;2096976;28;20471;-57
2022/09/23 03:23:27;;;;;;;14.50;3.90;;;;;;;10.73;100.00;101708.97;2098709;28;20426;-58
2022/09/23 03:24:31;;;;;;;16.63;3.47;;;;;;;10.72;100.00;101706.59;2096943;28;20426;-57
2022/09/23 03:25:37;;;;;;;5.37;2.70;;;;;;;10.69;100.00;101708.19;2096670;28;20426;-57
2022/09/23 03:26:42;;;;;;;7.37;2.63;;;;;;;10.65;100.00;101701.88;2097422;28;20862;-57
2022/09/23 03:27:44;;;;;;;10.33;2.60;;;;;;;10.70;100.00;101703.44;2096893;28;20480;-58
2022/09/23 03:28:46;;;;;;;10.73;3.13;;;;;;;10.44;100.00;101660.47;2097627;28;20436;-57
2022/09/23 03:29:52;;;;;;;7.50;2.40;;;;;;;10.73;100.00;101706.19;2096637;28;20457;-57
2022/09/23 03:30:54;;;;;;;8.27;3.10;;;;;;;10.74;100.00;101707.78;2096642;28;20455;-57
2022/09/23 03:31:56;;;;;;;5.77;2.63;;;;;;;10.68;100.00;101687.22;2097943;28;20426;-58
2022/09/23 03:32:59;;;;;;;9.53;2.87;;;;;;;10.71;100.00;101708.56;2093558;28;20461;-57
2022/09/23 03:34:04;;;;;;;12.10;3.20;;;;;;;10.68;100.00;101698.31;2102916;28;20955;-58
2022/09/23 03:35:05;;;;;;;9.17;2.87;;;;;;;10.69;100.00;101712.94;2097208;28;20445;-58
2022/09/23 03:37:30;;;;;;;5.57;2.30;;;;;;;10.62;100.00;101716.56;2094880;28;20496;-57
2022/09/23 03:38:36;;;;;;;3.00;2.47;;;;;;;10.26;100.00;101653.47;2104512;28;20837;-57
2022/09/23 03:40:14;;;;;;;4.30;2.50;;;;;;;10.60;100.00;101720.94;2100905;28;20739;-57
2022/09/23 03:41:27;;;;;;;5.50;2.20;;;;;;;10.24;100.00;101658.63;2096378;28;20848;-57
2022/09/23 03:42:31;;;;;;;4.50;2.20;;;;;;;10.59;100.00;101714.59;2098142;28;20437;-58
2022/09/23 03:43:32;;;;;;;4.00;2.30;;;;;;;10.13;100.00;101638.50;2098255;28;20438;-58
2022/09/23 03:44:38;;;;;;;3.50;2.30;;;;;;;10.31;100.00;101675.19;2096560;28;20930;-57
2022/09/23 03:45:40;;;;;;;4.60;2.50;;;;;;;10.23;100.00;101662.56;2089865;28;20668;-58
2022/09/23 03:46:45;;;;;;;3.70;2.50;;;;;;;10.56;100.00;101712.63;2095231;28;20565;-58
2022/09/23 03:47:45;;;;;;;4.87;2.30;;;;;;;10.53;100.00;101710.69;2097598;28;20474;-57
2022/09/23 03:48:46;;;;;;;4.63;2.20;;;;;;;10.56;100.00;101712.63;2097111;28;20989;-57
2022/09/23 03:49:48;;;;;;;5.83;2.50;;;;;;;10.58;100.00;101715.00;2097357;28;20207;-57
2022/09/23 03:50:49;;;;;;;5.43;2.90;;;;;;;10.58;100.00;101718.56;2096178;28;20176;-58
2022/09/23 03:51:49;;;;;;;4.30;2.73;;;;;;;9.96;100.00;101637.38;2097259;28;20444;-58
2022/09/23 03:52:49;;;;;;;5.80;2.77;;;;;;;10.56;100.00;101715.41;2091965;28;20575;-58
2022/09/23 03:53:50;;;;;;;6.53;2.63;;;;;;;10.54;100.00;101717.81;2101145;28;20729;-59
2022/09/23 03:54:51;;;;;;;3.77;3.00;;;;;;;10.58;100.00;101721.34;2105213;28;20182;-58
2022/09/23 03:55:52;;;;;;;4.53;2.80;;;;;;;10.54;100.00;101722.53;2097213;28;20176;-58
2022/09/23 03:56:56;;;;;;;6.30;2.70;;;;;;;10.58;100.00;101723.31;2097408;28;20429;-58
2022/09/23 03:57:59;;;;;;;6.33;2.80;;;;;;;10.60;100.00;101718.19;2096644;28;20214;-59
2022/09/23 03:58:59;;;;;;;7.53;2.73;;;;;;;9.72;100.00;101591.22;2097098;28;21013;-58
2022/09/23 04:00:00;;;;;;;5.93;2.70;;;;;;;9.93;100.00;101620.75;2097283;28;20796;-58
2022/09/23 04:01:00;;;;;;;9.63;3.20;;;;;;;10.61;100.00;101719.75;2090907;28;20204;-58
2022/09/23 04:02:01;;;;;;;3.97;2.90;;;;;;;10.59;100.00;101722.91;2093321;28;20282;-59
2022/09/23 04:03:02;;;;;;;4.67;2.70;;;;;;;10.46;100.00;101707.16;2093561;28;20233;-59
2022/09/23 04:04:02;;;;;;;7.50;2.90;;;;;;;10.59;100.00;101725.69;2091557;28;20172;-59
2022/09/23 04:05:03;;;;;;;9.33;2.87;;;;;;;10.60;100.00;101724.50;2097589;28;20192;-59
2022/09/23 04:06:04;;;;;;;14.43;3.33;;;;;;;10.60;100.00;101726.50;2097529;28;20640;-59
2022/09/23 04:07:05;;;;;;;5.83;3.10;;;;;;;10.24;100.00;101672.47;2097250;28;20882;-59
2022/09/23 04:08:05;;;;;;;7.47;2.70;;;;;;;10.60;100.00;101726.50;2094258;28;20300;-59
2022/09/23 04:09:06;;;;;;;4.27;2.97;;;;;;;10.56;100.00;101728.50;2096984;28;20211;-59
2022/09/23 04:10:07;;;;;;;4.87;2.93;;;;;;;10.55;100.00;101724.16;2097604;28;20270;-59
2022/09/23 04:11:07;;;;;;;5.70;2.97;;;;;;;10.52;100.00;101719.41;2092608;28;20183;-58
2022/09/23 04:12:13;;;;;;;8.77;3.50;;;;;;;10.58;100.00;101729.66;2097556;28;20204;-58
2022/09/23 04:13:13;;;;;;;8.33;3.70;;;;;;;10.57;100.00;101730.88;2095584;28;20214;-58
2022/09/23 04:14:14;;;;;;;5.57;3.30;;;;;;;10.59;100.00;101735.97;2097459;28;20418;-58
2022/09/23 04:15:15;;;;;;;11.90;3.50;;;;;;;10.59;100.00;101733.22;2097232;28;20199;-58
2022/09/23 04:16:15;;;;;;;9.30;3.73;;;;;;;10.59;100.00;101738.75;2096945;28;20183;-58
2022/09/23 04:17:16;;;;;;;5.67;3.70;;;;;;;10.59;100.00;101736.78;2101153;28;20655;-58
2022/09/23 04:18:16;;;;;;;4.83;3.50;;;;;;;10.61;100.00;101736.38;2098266;28;20191;-58
2022/09/23 04:19:17;;;;;;;3.60;3.17;;;;;;;10.58;100.00;101748.25;2094939;28;20559;-58
2022/09/23 04:20:18;;;;;;;4.00;3.60;;;;;;;10.59;100.00;101742.31;2098966;28;20266;-58
2022/09/23 04:21:18;;;;;;;6.63;3.80;;;;;;;10.59;100.00;101738.75;2096194;28;20275;-58
2022/09/23 04:22:19;;;;;;;6.20;3.63;;;;;;;10.48;100.00;101724.16;2098059;28;20178;-58
2022/09/23 04:23:19;;;;;;;5.40;3.63;;;;;;;10.64;100.00;101749.41;2099811;28;20229;-58
2022/09/23 04:24:20;;;;;;;8.57;3.90;;;;;;;10.53;100.00;101746.72;2098928;28;20208;-59
2022/09/23 04:25:21;;;;;;;3.87;3.47;;;;;;;10.41;100.00;101736.09;2100543;28;20196;-58
2022/09/23 04:26:21;;;;;;;5.50;3.47;;;;;;;10.54;100.00;101748.28;2100935;28;20445;-59
2022/09/23 04:27:22;;;;;;;5.67;3.97;;;;;;;10.59;100.00;101758.16;2095688;28;20232;-58
2022/09/23 04:28:22;;;;;;;5.43;3.80;;;;;;;10.61;100.00;101744.69;2100268;28;20218;-59
2022/09/23 04:29:24;;;;;;;11.10;4.90;;;;;;;10.64;100.00;101760.50;2097124;28;20590;-59
2022/09/23 04:30:24;;;;;;;7.93;5.10;;;;;;;10.64;100.00;101758.53;2097719;28;20771;-59
2022/09/23 04:31:25;;;;;;;8.90;4.67;;;;;;;10.49;100.00;101736.84;2101595;28;20900;-59
2022/09/23 04:32:26;;;;;;;7.70;4.20;;;;;;;10.66;100.00;101755.34;2100090;28;20686;-59
2022/09/23 04:33:26;;;;;;;9.43;4.53;;;;;;;10.68;100.00;101762.06;2098797;28;20191;-59
2022/09/23 04:34:27;;;;;;;5.47;4.23;;;;;;;10.58;100.00;101753.81;2100711;28;20188;-58
2022/09/23 04:35:27;;;;;;;7.87;3.90;;;;;;;10.64;100.00;101757.72;2099677;28;20187;-59
2022/09/23 04:36:29;;;;;;;11.13;5.00;;;;;;;10.13;100.00;101689.16;2099411;28;20175;-59
2022/09/23 04:37:29;;;;;;;8.77;6.00;;;;;;;10.62;100.00;101763.69;2098974;28;20228;-59
2022/09/23 04:38:30;;;;;;;6.00;4.60;;;;;;;10.39;100.00;101723.81;2105254;28;20470;-59
2022/09/23 04:39:30;;;;;;;7.03;4.77;;;;;;;10.49;100.00;101751.50;2099696;28;20189;-59
2022/09/23 04:40:31;;;;;;;9.03;7.53;;;;;;;10.64;100.00;101764.06;2095492;28;20213;-59
2022/09/23 04:41:32;;;;;;;9.20;4.60;;;;;;;10.70;100.00;101767.19;2097820;28;20682;-59
2022/09/23 04:42:32;;;;;;;8.77;6.73;;;;;;;10.70;100.00;101765.22;2092236;28;20922;-61
2022/09/23 04:43:33;;;;;;;7.43;5.57;;;;;;;10.66;100.00;101758.91;2095714;28;20208;-59
2022/09/23 04:44:33;;;;;;;8.57;6.40;;;;;;;10.75;100.00;101766.75;2096177;28;20183;-59
2022/09/23 04:45:34;;;;;;;10.70;6.87;;;;;;;10.76;100.00;101763.59;2100235;28;20182;-59
2022/09/23 04:46:34;;;;;;;4.53;4.13;;;;;;;10.40;100.00;101711.56;2100495;28;20186;-59
2022/09/23 04:47:35;;;;;;;5.93;4.00;;;;;;;10.66;100.00;101756.13;2098953;28;20240;-59
2022/09/23 04:48:37;;;;;;;5.13;4.37;;;;;;;10.49;100.00;101732.09;2092710;28;20191;-58
2022/09/23 04:49:38;;;;;;;8.27;5.20;;;;;;;10.69;100.00;101768.38;2100353;28;20443;-59
2022/09/23 04:50:38;;;;;;;8.90;4.40;;;;;;;10.71;100.00;101768.78;2099397;28;20996;-59
2022/09/23 04:51:42;;;;;;;7.00;4.80;;;;;;;10.75;100.00;101769.53;2104829;28;20197;-59
2022/09/23 04:52:43;;;;;;;4.93;4.20;;;;;;;10.75;100.00;101767.56;2108811;28;20240;-59
2022/09/23 04:53:45;;;;;;;7.73;4.90;;;;;;;10.64;100.00;101747.44;2098992;28;20447;-59
2022/09/23 04:54:46;;;;;;;6.67;4.47;;;;;;;10.76;100.00;101773.91;2095329;28;20242;-59
2022/09/23 04:55:46;;;;;;;5.00;4.40;;;;;;;10.79;100.00;101775.84;2095816;28;20460;-59
2022/09/23 04:56:47;;;;;;;5.47;4.70;;;;;;;10.66;100.00;101739.50;2094982;28;20895;-60
2022/09/23 04:57:47;;;;;;;5.67;4.80;;;;;;;10.76;100.00;101758.03;2099865;28;20186;-59
2022/09/23 04:58:48;;;;;;;7.57;5.27;;;;;;;10.83;100.00;101771.09;2101253;28;20205;-59
2022/09/23 04:59:49;;;;;;;10.60;5.73;;;;;;;10.83;100.00;101776.63;2104735;28;20270;-60
2022/09/23 05:00:50;;;;;;;5.23;4.70;;;;;;;10.90;100.00;101777.38;2103550;28;20438;-59
2022/09/23 05:01:54;;;;;;;10.30;5.77;;;;;;;10.99;100.00;101785.22;2098010;28;20206;-60
2022/09/23 05:02:54;;;;;;;8.73;6.70;;;;;;;11.06;100.00;101777.66;2100800;28;20193;-59
2022/09/23 05:04:00;;;;;;;9.27;7.60;;;;;;;11.01;100.00;101772.53;2099602;28;20433;-59
2022/09/23 05:05:01;;;;;;;7.03;4.70;;;;;;;11.07;100.00;101759.03;2098976;28;20244;-59
2022/09/23 05:06:01;;;;;;;8.07;5.23;;;;;;;11.10;100.00;101764.53;2098942;28;20487;-60
2022/09/23 05:07:02;;;;;;;6.20;4.70;;;;;;;11.23;100.00;101778.72;2094085;28;20183;-59
2022/09/23 05:08:03;;;;;;;9.83;4.17;;;;;;;11.25;100.00;101782.66;2101243;28;20236;-60
2022/09/23 05:09:06;;;;;;;8.57;4.30;;;;;;;10.96;100.00;101736.91;2098777;28;20935;-60
2022/09/23 05:10:07;;;;;;;6.33;4.50;;;;;;;11.24;100.00;101780.28;2100025;28;20226;-60